sensor_id;sensor_type;location;lat;lon;timestamp;P1;durP1;ratioP1;P2;durP2;ratioP2
4246;SDS011;2137;52.564;10.062;2022-09-09T00:00:15;2.33;;;1.60;;
4246;SDS011;2137;52.564;10.062;2022-09-09T00:00:34;1.52;;;1.42;;
4246;SDS011;2137;52.564;10.062;2022-09-09T00:00:54;1.50;;;1.40;;
4246;SDS011;2137;52.564;10.062;2022-09-09T00:01:17;1.70;;;1.55;;
4246;SDS011;2137;52.564;10.062;2022-09-09T00:01:41;1.33;;;1.23;;
4246;SDS011;2137;52.564;10.062;2022-09-09T00:02:01;2.22;;;1.50;;
4246;SDS011;2137;52.564;10.062;2022-09-09T00:02:18;1.95;;;1.58;;
4246;SDS011;2137;52.564;10.062;2022-09-09T00:02:36;1.63;;;1.48;;
4246;SDS011;2137;52.564;10.062;2022-09-09T00:02:55;1.58;;;1.20;;
4246;SDS011;2137;52.564;10.062;2022-09-09T00:03:16;1.73;;;1.17;;
4246;SDS011;2137;52.564;10.062;2022-09-09T00:03:34;1.73;;;1.27;;
4246;SDS011;2137;52.564;10.062;2022-09-09T00:03:56;1.42;;;1.27;;
4246;SDS011;2137;52.564;10.062;2022-09-09T00:04:15;3.10;;;1.02;;
4246;SDS011;2137;52.564;10.062;2022-09-09T00:04:37;1.60;;;1.38;;
4246;SDS011;2137;52.564;10.062;2022-09-09T00:04:57;1.46;;;1.18;;
4246;SDS011;2137;52.564;10.062;2022-09-09T00:05:18;1.25;;;0.95;;
4246;SDS011;2137;52.564;10.062;2022-09-09T00:05:41;1.55;;;1.00;;
4246;SDS011;2137;52.564;10.062;2022-09-09T00:06:03;1.18;;;1.00;;
4246;SDS011;2137;52.564;10.062;2022-09-09T00:06:21;1.95;;;1.20;;
4246;SDS011;2137;52.564;10.062;2022-09-09T00:06:43;1.70;;;1.45;;
4246;SDS011;2137;52.564;10.062;2022-09-09T00:07:02;2.60;;;1.52;;
4246;SDS011;2137;52.564;10.062;2022-09-09T00:07:20;2.17;;;1.60;;
4246;SDS011;2137;52.564;10.062;2022-09-09T00:07:43;2.38;;;1.60;;
4246;SDS011;2137;52.564;10.062;2022-09-09T00:08:02;1.50;;;1.35;;
4246;SDS011;2137;52.564;10.062;2022-09-09T00:08:20;1.48;;;1.38;;
4246;SDS011;2137;52.564;10.062;2022-09-09T00:08:41;2.55;;;1.55;;
4246;SDS011;2137;52.564;10.062;2022-09-09T00:09:02;1.98;;;1.30;;
4246;SDS011;2137;52.564;10.062;2022-09-09T00:09:22;1.95;;;1.27;;
4246;SDS011;2137;52.564;10.062;2022-09-09T00:09:40;1.52;;;1.42;;
4246;SDS011;2137;52.564;10.062;2022-09-09T00:10:03;1.42;;;1.33;;
4246;SDS011;2137;52.564;10.062;2022-09-09T00:10:22;1.35;;;1.25;;
4246;SDS011;2137;52.564;10.062;2022-09-09T00:10:42;3.60;;;1.48;;
4246;SDS011;2137;52.564;10.062;2022-09-09T00:11:01;3.95;;;1.52;;
4246;SDS011;2137;52.564;10.062;2022-09-09T00:11:21;1.50;;;1.20;;
4246;SDS011;2137;52.564;10.062;2022-09-09T00:11:47;2.00;;;1.20;;
4246;SDS011;2137;52.564;10.062;2022-09-09T00:12:05;1.33;;;0.93;;
4246;SDS011;2137;52.564;10.062;2022-09-09T00:12:27;1.77;;;1.48;;
4246;SDS011;2137;52.564;10.062;2022-09-09T00:12:51;1.50;;;1.15;;
4246;SDS011;2137;52.564;10.062;2022-09-09T00:13:13;1.17;;;1.08;;
4246;SDS011;2137;52.564;10.062;2022-09-09T00:13:33;1.85;;;1.30;;
4246;SDS011;2137;52.564;10.062;2022-09-09T00:13:52;1.40;;;1.10;;
4246;SDS011;2137;52.564;10.062;2022-09-09T00:14:12;1.70;;;1.48;;
4246;SDS011;2137;52.564;10.062;2022-09-09T00:14:34;2.35;;;1.52;;
4246;SDS011;2137;52.564;10.062;2022-09-09T00:14:54;1.55;;;1.27;;
4246;SDS011;2137;52.564;10.062;2022-09-09T00:15:11;1.48;;;1.38;;
4246;SDS011;2137;52.564;10.062;2022-09-09T00:15:30;1.33;;;1.23;;
4246;SDS011;2137;52.564;10.062;2022-09-09T00:15:52;1.17;;;1.05;;
4246;SDS011;2137;52.564;10.062;2022-09-09T00:16:14;1.38;;;1.10;;
4246;SDS011;2137;52.564;10.062;2022-09-09T00:16:32;1.08;;;1.00;;
4246;SDS011;2137;52.564;10.062;2022-09-09T00:16:52;1.38;;;1.27;;
4246;SDS011;2137;52.564;10.062;2022-09-09T00:17:12;1.42;;;1.33;;
4246;SDS011;2137;52.564;10.062;2022-09-09T00:17:31;1.60;;;1.50;;
4246;SDS011;2137;52.564;10.062;2022-09-09T00:17:51;1.55;;;1.45;;
4246;SDS011;2137;52.564;10.062;2022-09-09T00:18:13;1.50;;;1.33;;
4246;SDS011;2137;52.564;10.062;2022-09-09T00:18:36;2.33;;;1.70;;
4246;SDS011;2137;52.564;10.062;2022-09-09T00:18:57;2.33;;;1.70;;
4246;SDS011;2137;52.564;10.062;2022-09-09T00:19:18;1.25;;;1.10;;
4246;SDS011;2137;52.564;10.062;2022-09-09T00:19:38;2.35;;;1.50;;
4246;SDS011;2137;52.564;10.062;2022-09-09T00:20:01;2.17;;;1.52;;
4246;SDS011;2137;52.564;10.062;2022-09-09T00:20:20;1.35;;;1.25;;
4246;SDS011;2137;52.564;10.062;2022-09-09T00:20:41;1.67;;;1.58;;
4246;SDS011;2137;52.564;10.062;2022-09-09T00:21:00;1.67;;;1.58;;
4246;SDS011;2137;52.564;10.062;2022-09-09T00:21:19;1.77;;;1.52;;
4246;SDS011;2137;52.564;10.062;2022-09-09T00:21:38;2.70;;;1.58;;
4246;SDS011;2137;52.564;10.062;2022-09-09T00:22:03;1.52;;;1.42;;
4246;SDS011;2137;52.564;10.062;2022-09-09T00:22:27;2.30;;;1.75;;
4246;SDS011;2137;52.564;10.062;2022-09-09T00:22:45;2.38;;;1.45;;
4246;SDS011;2137;52.564;10.062;2022-09-09T00:23:05;4.50;;;1.20;;
4246;SDS011;2137;52.564;10.062;2022-09-09T00:23:24;1.60;;;1.30;;
4246;SDS011;2137;52.564;10.062;2022-09-09T00:23:43;1.65;;;1.52;;
4246;SDS011;2137;52.564;10.062;2022-09-09T00:24:04;1.35;;;1.25;;
4246;SDS011;2137;52.564;10.062;2022-09-09T00:24:26;1.20;;;1.00;;
4246;SDS011;2137;52.564;10.062;2022-09-09T00:24:44;1.30;;;1.05;;
4246;SDS011;2137;52.564;10.062;2022-09-09T00:25:02;1.30;;;1.20;;
4246;SDS011;2137;52.564;10.062;2022-09-09T00:25:23;2.05;;;1.45;;
4246;SDS011;2137;52.564;10.062;2022-09-09T00:25:45;1.98;;;1.27;;
4246;SDS011;2137;52.564;10.062;2022-09-09T00:26:09;1.27;;;1.10;;
4246;SDS011;2137;52.564;10.062;2022-09-09T00:26:30;1.77;;;1.20;;
4246;SDS011;2137;52.564;10.062;2022-09-09T00:26:48;1.52;;;1.00;;
4246;SDS011;2137;52.564;10.062;2022-09-09T00:27:08;1.50;;;0.80;;
4246;SDS011;2137;52.564;10.062;2022-09-09T00:27:29;1.23;;;0.95;;
4246;SDS011;2137;52.564;10.062;2022-09-09T00:27:48;1.60;;;1.00;;
4246;SDS011;2137;52.564;10.062;2022-09-09T00:28:07;3.20;;;1.10;;
4246;SDS011;2137;52.564;10.062;2022-09-09T00:28:27;2.03;;;0.98;;
4246;SDS011;2137;52.564;10.062;2022-09-09T00:28:48;1.90;;;1.00;;
4246;SDS011;2137;52.564;10.062;2022-09-09T00:29:10;2.70;;;1.10;;
4246;SDS011;2137;52.564;10.062;2022-09-09T00:29:33;1.15;;;0.90;;
4246;SDS011;2137;52.564;10.062;2022-09-09T00:29:53;1.35;;;1.10;;
4246;SDS011;2137;52.564;10.062;2022-09-09T00:30:14;2.30;;;0.90;;
4246;SDS011;2137;52.564;10.062;2022-09-09T00:30:33;2.55;;;1.20;;
4246;SDS011;2137;52.564;10.062;2022-09-09T00:30:50;1.45;;;1.00;;
4246;SDS011;2137;52.564;10.062;2022-09-09T00:31:11;1.40;;;0.80;;
4246;SDS011;2137;52.564;10.062;2022-09-09T00:31:28;3.35;;;0.82;;
4246;SDS011;2137;52.564;10.062;2022-09-09T00:31:47;1.83;;;0.90;;
4246;SDS011;2137;52.564;10.062;2022-09-09T00:32:07;1.38;;;0.80;;
4246;SDS011;2137;52.564;10.062;2022-09-09T00:32:28;1.20;;;0.75;;
4246;SDS011;2137;52.564;10.062;2022-09-09T00:32:45;1.50;;;0.80;;
4246;SDS011;2137;52.564;10.062;2022-09-09T00:33:08;1.02;;;0.70;;
4246;SDS011;2137;52.564;10.062;2022-09-09T00:33:29;1.30;;;0.85;;
4246;SDS011;2137;52.564;10.062;2022-09-09T00:33:46;1.25;;;0.93;;
4246;SDS011;2137;52.564;10.062;2022-09-09T00:34:05;0.80;;;0.80;;
4246;SDS011;2137;52.564;10.062;2022-09-09T00:34:26;1.00;;;0.85;;
4246;SDS011;2137;52.564;10.062;2022-09-09T00:34:48;0.95;;;0.90;;
4246;SDS011;2137;52.564;10.062;2022-09-09T00:35:12;0.93;;;0.85;;
4246;SDS011;2137;52.564;10.062;2022-09-09T00:35:32;0.52;;;0.50;;
4246;SDS011;2137;52.564;10.062;2022-09-09T00:35:51;0.77;;;0.52;;
4246;SDS011;2137;52.564;10.062;2022-09-09T00:36:09;1.25;;;0.80;;
4246;SDS011;2137;52.564;10.062;2022-09-09T00:36:28;1.35;;;0.95;;
4246;SDS011;2137;52.564;10.062;2022-09-09T00:36:48;1.85;;;0.93;;
4246;SDS011;2137;52.564;10.062;2022-09-09T00:37:07;2.97;;;0.98;;
4246;SDS011;2137;52.564;10.062;2022-09-09T00:37:25;2.58;;;1.05;;
4246;SDS011;2137;52.564;10.062;2022-09-09T00:37:42;1.70;;;1.00;;
4246;SDS011;2137;52.564;10.062;2022-09-09T00:38:00;0.80;;;0.80;;
4246;SDS011;2137;52.564;10.062;2022-09-09T00:38:19;1.50;;;0.75;;
4246;SDS011;2137;52.564;10.062;2022-09-09T00:38:41;1.25;;;0.90;;
4246;SDS011;2137;52.564;10.062;2022-09-09T00:38:59;0.77;;;0.77;;
4246;SDS011;2137;52.564;10.062;2022-09-09T00:39:20;1.00;;;0.73;;
4246;SDS011;2137;52.564;10.062;2022-09-09T00:39:38;1.67;;;0.90;;
4246;SDS011;2137;52.564;10.062;2022-09-09T00:39:59;1.65;;;1.10;;
4246;SDS011;2137;52.564;10.062;2022-09-09T00:40:18;0.90;;;0.70;;
4246;SDS011;2137;52.564;10.062;2022-09-09T00:40:39;0.80;;;0.63;;
4246;SDS011;2137;52.564;10.062;2022-09-09T00:40:58;1.13;;;0.80;;
4246;SDS011;2137;52.564;10.062;2022-09-09T00:41:20;0.70;;;0.70;;
4246;SDS011;2137;52.564;10.062;2022-09-09T00:41:41;0.77;;;0.65;;
4246;SDS011;2137;52.564;10.062;2022-09-09T00:42:09;1.40;;;0.98;;
4246;SDS011;2137;52.564;10.062;2022-09-09T00:42:32;1.23;;;1.13;;
4246;SDS011;2137;52.564;10.062;2022-09-09T00:42:54;0.80;;;0.80;;
4246;SDS011;2137;52.564;10.062;2022-09-09T00:43:21;0.82;;;0.70;;
4246;SDS011;2137;52.564;10.062;2022-09-09T00:43:39;0.98;;;0.88;;
4246;SDS011;2137;52.564;10.062;2022-09-09T00:43:57;0.93;;;0.90;;
4246;SDS011;2137;52.564;10.062;2022-09-09T00:44:20;1.90;;;0.93;;
4246;SDS011;2137;52.564;10.062;2022-09-09T00:44:42;1.20;;;0.90;;
4246;SDS011;2137;52.564;10.062;2022-09-09T00:45:05;1.30;;;0.80;;
4246;SDS011;2137;52.564;10.062;2022-09-09T00:45:35;1.45;;;1.00;;
4246;SDS011;2137;52.564;10.062;2022-09-09T00:46:41;0.60;;;0.60;;
4246;SDS011;2137;52.564;10.062;2022-09-09T00:47:13;1.90;;;0.90;;
4246;SDS011;2137;52.564;10.062;2022-09-09T00:47:44;0.80;;;0.57;;
4246;SDS011;2137;52.564;10.062;2022-09-09T00:48:01;1.10;;;0.77;;
4246;SDS011;2137;52.564;10.062;2022-09-09T00:48:21;1.00;;;0.80;;
4246;SDS011;2137;52.564;10.062;2022-09-09T00:48:45;1.58;;;0.93;;
4246;SDS011;2137;52.564;10.062;2022-09-09T00:49:07;2.05;;;0.73;;
4246;SDS011;2137;52.564;10.062;2022-09-09T00:49:35;1.15;;;0.90;;
4246;SDS011;2137;52.564;10.062;2022-09-09T00:49:56;1.60;;;0.90;;
4246;SDS011;2137;52.564;10.062;2022-09-09T00:50:25;1.15;;;0.82;;
4246;SDS011;2137;52.564;10.062;2022-09-09T00:50:47;2.53;;;0.77;;
4246;SDS011;2137;52.564;10.062;2022-09-09T00:51:07;1.84;;;0.78;;
4246;SDS011;2137;52.564;10.062;2022-09-09T00:51:29;0.93;;;0.82;;
4246;SDS011;2137;52.564;10.062;2022-09-09T00:51:49;0.63;;;0.63;;
4246;SDS011;2137;52.564;10.062;2022-09-09T00:52:17;1.40;;;0.82;;
4246;SDS011;2137;52.564;10.062;2022-09-09T00:52:39;0.73;;;0.70;;
4246;SDS011;2137;52.564;10.062;2022-09-09T00:53:02;1.00;;;0.85;;
4246;SDS011;2137;52.564;10.062;2022-09-09T00:53:24;1.20;;;0.77;;
4246;SDS011;2137;52.564;10.062;2022-09-09T00:53:56;1.20;;;0.90;;
4246;SDS011;2137;52.564;10.062;2022-09-09T00:54:28;1.42;;;0.70;;
4246;SDS011;2137;52.564;10.062;2022-09-09T00:54:51;0.55;;;0.40;;
4246;SDS011;2137;52.564;10.062;2022-09-09T00:55:12;0.77;;;0.60;;
4246;SDS011;2137;52.564;10.062;2022-09-09T00:55:34;0.50;;;0.50;;
4246;SDS011;2137;52.564;10.062;2022-09-09T00:55:59;1.20;;;0.65;;
4246;SDS011;2137;52.564;10.062;2022-09-09T00:56:19;0.75;;;0.65;;
4246;SDS011;2137;52.564;10.062;2022-09-09T00:56:39;0.60;;;0.60;;
4246;SDS011;2137;52.564;10.062;2022-09-09T00:57:03;0.98;;;0.50;;
4246;SDS011;2137;52.564;10.062;2022-09-09T00:57:25;1.15;;;0.80;;
4246;SDS011;2137;52.564;10.062;2022-09-09T00:57:44;1.45;;;0.90;;
4246;SDS011;2137;52.564;10.062;2022-09-09T00:58:02;0.90;;;0.55;;
4246;SDS011;2137;52.564;10.062;2022-09-09T00:58:19;2.17;;;0.60;;
4246;SDS011;2137;52.564;10.062;2022-09-09T00:58:36;1.88;;;0.70;;
4246;SDS011;2137;52.564;10.062;2022-09-09T00:58:54;1.52;;;0.70;;
4246;SDS011;2137;52.564;10.062;2022-09-09T00:59:16;0.98;;;0.80;;
4246;SDS011;2137;52.564;10.062;2022-09-09T00:59:45;1.20;;;0.80;;
4246;SDS011;2137;52.564;10.062;2022-09-09T01:00:35;0.73;;;0.60;;
4246;SDS011;2137;52.564;10.062;2022-09-09T01:00:56;0.70;;;0.70;;
4246;SDS011;2137;52.564;10.062;2022-09-09T01:01:14;1.23;;;0.80;;
4246;SDS011;2137;52.564;10.062;2022-09-09T01:01:30;1.02;;;0.80;;
4246;SDS011;2137;52.564;10.062;2022-09-09T01:01:48;0.73;;;0.50;;
4246;SDS011;2137;52.564;10.062;2022-09-09T01:02:07;1.42;;;0.50;;
4246;SDS011;2137;52.564;10.062;2022-09-09T01:02:30;2.10;;;0.80;;
4246;SDS011;2137;52.564;10.062;2022-09-09T01:02:52;1.02;;;0.70;;
4246;SDS011;2137;52.564;10.062;2022-09-09T01:03:19;0.73;;;0.47;;
4246;SDS011;2137;52.564;10.062;2022-09-09T01:03:38;1.25;;;0.50;;
4246;SDS011;2137;52.564;10.062;2022-09-09T01:03:58;1.70;;;0.90;;
4246;SDS011;2137;52.564;10.062;2022-09-09T01:04:16;1.83;;;1.13;;
4246;SDS011;2137;52.564;10.062;2022-09-09T01:04:36;1.10;;;0.85;;
4246;SDS011;2137;52.564;10.062;2022-09-09T01:04:53;2.28;;;0.82;;
4246;SDS011;2137;52.564;10.062;2022-09-09T01:05:12;1.25;;;0.60;;
4246;SDS011;2137;52.564;10.062;2022-09-09T01:05:33;1.45;;;0.68;;
4246;SDS011;2137;52.564;10.062;2022-09-09T01:05:54;2.05;;;0.80;;
4246;SDS011;2137;52.564;10.062;2022-09-09T01:06:14;1.20;;;0.63;;
4246;SDS011;2137;52.564;10.062;2022-09-09T01:06:32;2.10;;;0.60;;
4246;SDS011;2137;52.564;10.062;2022-09-09T01:06:50;2.67;;;0.60;;
4246;SDS011;2137;52.564;10.062;2022-09-09T01:07:14;1.73;;;0.57;;
4246;SDS011;2137;52.564;10.062;2022-09-09T01:07:32;1.75;;;0.60;;
4246;SDS011;2137;52.564;10.062;2022-09-09T01:07:49;1.58;;;0.60;;
4246;SDS011;2137;52.564;10.062;2022-09-09T01:08:13;0.50;;;0.43;;
4246;SDS011;2137;52.564;10.062;2022-09-09T01:08:36;1.20;;;0.70;;
4246;SDS011;2137;52.564;10.062;2022-09-09T01:09:22;1.42;;;0.64;;
4246;SDS011;2137;52.564;10.062;2022-09-09T01:09:44;1.48;;;0.75;;
4246;SDS011;2137;52.564;10.062;2022-09-09T01:10:03;1.60;;;0.63;;
4246;SDS011;2137;52.564;10.062;2022-09-09T01:10:26;1.90;;;0.60;;
4246;SDS011;2137;52.564;10.062;2022-09-09T01:10:48;0.80;;;0.60;;
4246;SDS011;2137;52.564;10.062;2022-09-09T01:11:06;0.82;;;0.60;;
4246;SDS011;2137;52.564;10.062;2022-09-09T01:11:26;0.80;;;0.50;;
4246;SDS011;2137;52.564;10.062;2022-09-09T01:11:49;0.77;;;0.50;;
4246;SDS011;2137;52.564;10.062;2022-09-09T01:12:09;0.75;;;0.55;;
4246;SDS011;2137;52.564;10.062;2022-09-09T01:12:34;1.05;;;0.57;;
4246;SDS011;2137;52.564;10.062;2022-09-09T01:12:51;1.42;;;0.68;;
4246;SDS011;2137;52.564;10.062;2022-09-09T01:13:11;1.15;;;0.65;;
4246;SDS011;2137;52.564;10.062;2022-09-09T01:13:31;0.70;;;0.57;;
4246;SDS011;2137;52.564;10.062;2022-09-09T01:13:56;1.38;;;0.60;;
4246;SDS011;2137;52.564;10.062;2022-09-09T01:14:20;2.33;;;0.50;;
4246;SDS011;2137;52.564;10.062;2022-09-09T01:14:40;0.80;;;0.60;;
4246;SDS011;2137;52.564;10.062;2022-09-09T01:15:01;1.65;;;0.70;;
4246;SDS011;2137;52.564;10.062;2022-09-09T01:15:20;1.23;;;0.60;;
4246;SDS011;2137;52.564;10.062;2022-09-09T01:15:39;0.43;;;0.40;;
4246;SDS011;2137;52.564;10.062;2022-09-09T01:15:58;0.68;;;0.50;;
4246;SDS011;2137;52.564;10.062;2022-09-09T01:16:19;0.80;;;0.50;;
4246;SDS011;2137;52.564;10.062;2022-09-09T01:16:36;0.60;;;0.40;;
4246;SDS011;2137;52.564;10.062;2022-09-09T01:16:53;0.80;;;0.38;;
4246;SDS011;2137;52.564;10.062;2022-09-09T01:17:12;2.10;;;0.40;;
4246;SDS011;2137;52.564;10.062;2022-09-09T01:17:36;1.35;;;0.55;;
4246;SDS011;2137;52.564;10.062;2022-09-09T01:17:58;0.70;;;0.50;;
4246;SDS011;2137;52.564;10.062;2022-09-09T01:18:21;2.30;;;0.70;;
4246;SDS011;2137;52.564;10.062;2022-09-09T01:18:39;1.55;;;0.60;;
4246;SDS011;2137;52.564;10.062;2022-09-09T01:18:57;0.93;;;0.50;;
4246;SDS011;2137;52.564;10.062;2022-09-09T01:19:17;0.60;;;0.43;;
4246;SDS011;2137;52.564;10.062;2022-09-09T01:19:38;1.20;;;0.68;;
4246;SDS011;2137;52.564;10.062;2022-09-09T01:19:59;2.13;;;0.60;;
4246;SDS011;2137;52.564;10.062;2022-09-09T01:20:23;2.10;;;0.50;;
4246;SDS011;2137;52.564;10.062;2022-09-09T01:20:52;0.70;;;0.50;;
4246;SDS011;2137;52.564;10.062;2022-09-09T01:21:14;1.45;;;0.57;;
4246;SDS011;2137;52.564;10.062;2022-09-09T01:21:34;2.08;;;0.57;;
4246;SDS011;2137;52.564;10.062;2022-09-09T01:21:55;1.75;;;0.60;;
4246;SDS011;2137;52.564;10.062;2022-09-09T01:22:15;2.53;;;0.80;;
4246;SDS011;2137;52.564;10.062;2022-09-09T01:22:35;1.00;;;0.47;;
4246;SDS011;2137;52.564;10.062;2022-09-09T01:23:01;0.70;;;0.50;;
4246;SDS011;2137;52.564;10.062;2022-09-09T01:23:30;0.60;;;0.50;;
4246;SDS011;2137;52.564;10.062;2022-09-09T01:24:22;0.70;;;0.40;;
4246;SDS011;2137;52.564;10.062;2022-09-09T01:25:01;1.38;;;0.60;;
4246;SDS011;2137;52.564;10.062;2022-09-09T01:26:02;0.80;;;0.60;;
4246;SDS011;2137;52.564;10.062;2022-09-09T01:26:22;1.05;;;0.63;;
4246;SDS011;2137;52.564;10.062;2022-09-09T01:26:41;1.83;;;0.65;;
4246;SDS011;2137;52.564;10.062;2022-09-09T01:27:07;1.63;;;0.50;;
4246;SDS011;2137;52.564;10.062;2022-09-09T01:27:25;1.58;;;0.70;;
4246;SDS011;2137;52.564;10.062;2022-09-09T01:27:41;1.00;;;0.75;;
4246;SDS011;2137;52.564;10.062;2022-09-09T01:28:00;1.88;;;0.70;;
4246;SDS011;2137;52.564;10.062;2022-09-09T01:28:21;1.10;;;0.60;;
4246;SDS011;2137;52.564;10.062;2022-09-09T01:28:40;1.30;;;0.60;;
4246;SDS011;2137;52.564;10.062;2022-09-09T01:29:02;0.90;;;0.60;;
4246;SDS011;2137;52.564;10.062;2022-09-09T01:29:25;0.88;;;0.52;;
4246;SDS011;2137;52.564;10.062;2022-09-09T01:29:42;0.43;;;0.43;;
4246;SDS011;2137;52.564;10.062;2022-09-09T01:29:59;0.50;;;0.50;;
4246;SDS011;2137;52.564;10.062;2022-09-09T01:30:17;1.00;;;0.40;;
4246;SDS011;2137;52.564;10.062;2022-09-09T01:30:37;1.38;;;0.40;;
4246;SDS011;2137;52.564;10.062;2022-09-09T01:30:55;1.25;;;0.65;;
4246;SDS011;2137;52.564;10.062;2022-09-09T01:31:15;0.80;;;0.60;;
4246;SDS011;2137;52.564;10.062;2022-09-09T01:31:36;2.38;;;0.50;;
4246;SDS011;2137;52.564;10.062;2022-09-09T01:31:55;1.70;;;0.40;;
4246;SDS011;2137;52.564;10.062;2022-09-09T01:32:49;1.73;;;0.65;;
4246;SDS011;2137;52.564;10.062;2022-09-09T01:33:07;1.75;;;0.90;;
4246;SDS011;2137;52.564;10.062;2022-09-09T01:33:28;2.26;;;0.60;;
4246;SDS011;2137;52.564;10.062;2022-09-09T01:33:45;1.40;;;0.40;;
4246;SDS011;2137;52.564;10.062;2022-09-09T01:34:04;1.02;;;0.40;;
4246;SDS011;2137;52.564;10.062;2022-09-09T01:34:29;2.05;;;0.60;;
4246;SDS011;2137;52.564;10.062;2022-09-09T01:34:47;1.70;;;0.60;;
4246;SDS011;2137;52.564;10.062;2022-09-09T01:35:04;1.40;;;0.45;;
4246;SDS011;2137;52.564;10.062;2022-09-09T01:35:31;1.15;;;0.30;;
4246;SDS011;2137;52.564;10.062;2022-09-09T01:35:52;4.10;;;0.60;;
4246;SDS011;2137;52.564;10.062;2022-09-09T01:36:13;2.34;;;0.48;;
4246;SDS011;2137;52.564;10.062;2022-09-09T01:36:39;0.82;;;0.40;;
4246;SDS011;2137;52.564;10.062;2022-09-09T01:36:59;1.50;;;0.50;;
4246;SDS011;2137;52.564;10.062;2022-09-09T01:37:18;1.02;;;0.55;;
4246;SDS011;2137;52.564;10.062;2022-09-09T01:37:35;0.88;;;0.60;;
4246;SDS011;2137;52.564;10.062;2022-09-09T01:37:51;1.40;;;0.60;;
4246;SDS011;2137;52.564;10.062;2022-09-09T01:38:08;1.58;;;0.60;;
4246;SDS011;2137;52.564;10.062;2022-09-09T01:38:25;1.25;;;0.57;;
4246;SDS011;2137;52.564;10.062;2022-09-09T01:38:43;1.40;;;0.60;;
4246;SDS011;2137;52.564;10.062;2022-09-09T01:39:00;1.15;;;0.40;;
4246;SDS011;2137;52.564;10.062;2022-09-09T01:39:17;1.27;;;0.50;;
4246;SDS011;2137;52.564;10.062;2022-09-09T01:39:36;0.73;;;0.45;;
4246;SDS011;2137;52.564;10.062;2022-09-09T01:39:58;0.85;;;0.40;;
4246;SDS011;2137;52.564;10.062;2022-09-09T01:40:15;1.85;;;0.40;;
4246;SDS011;2137;52.564;10.062;2022-09-09T01:40:31;1.58;;;0.60;;
4246;SDS011;2137;52.564;10.062;2022-09-09T01:40:49;1.20;;;0.50;;
4246;SDS011;2137;52.564;10.062;2022-09-09T01:41:12;0.35;;;0.28;;
4246;SDS011;2137;52.564;10.062;2022-09-09T01:41:51;1.05;;;0.40;;
4246;SDS011;2137;52.564;10.062;2022-09-09T01:42:10;1.20;;;0.40;;
4246;SDS011;2137;52.564;10.062;2022-09-09T01:42:27;0.60;;;0.30;;
4246;SDS011;2137;52.564;10.062;2022-09-09T01:42:44;0.82;;;0.50;;
4246;SDS011;2137;52.564;10.062;2022-09-09T01:43:00;1.02;;;0.52;;
4246;SDS011;2137;52.564;10.062;2022-09-09T01:43:17;1.05;;;0.60;;
4246;SDS011;2137;52.564;10.062;2022-09-09T01:43:34;2.47;;;0.70;;
4246;SDS011;2137;52.564;10.062;2022-09-09T01:43:52;1.58;;;0.60;;
4246;SDS011;2137;52.564;10.062;2022-09-09T01:44:09;1.42;;;0.60;;
4246;SDS011;2137;52.564;10.062;2022-09-09T01:44:28;1.80;;;0.50;;
4246;SDS011;2137;52.564;10.062;2022-09-09T01:44:46;1.30;;;0.40;;
4246;SDS011;2137;52.564;10.062;2022-09-09T01:45:04;1.23;;;0.40;;
4246;SDS011;2137;52.564;10.062;2022-09-09T01:45:21;1.80;;;0.50;;
4246;SDS011;2137;52.564;10.062;2022-09-09T01:45:38;1.20;;;0.55;;
4246;SDS011;2137;52.564;10.062;2022-09-09T01:45:56;1.58;;;0.68;;
4246;SDS011;2137;52.564;10.062;2022-09-09T01:46:15;1.58;;;0.60;;
4246;SDS011;2137;52.564;10.062;2022-09-09T01:46:33;1.05;;;0.38;;
4246;SDS011;2137;52.564;10.062;2022-09-09T01:46:51;1.40;;;0.45;;
4246;SDS011;2137;52.564;10.062;2022-09-09T01:47:10;0.88;;;0.43;;
4246;SDS011;2137;52.564;10.062;2022-09-09T01:47:42;1.75;;;0.40;;
4246;SDS011;2137;52.564;10.062;2022-09-09T01:48:29;0.90;;;0.40;;
4246;SDS011;2137;52.564;10.062;2022-09-09T01:48:52;1.30;;;0.50;;
4246;SDS011;2137;52.564;10.062;2022-09-09T01:49:09;1.52;;;0.40;;
4246;SDS011;2137;52.564;10.062;2022-09-09T01:49:26;0.75;;;0.32;;
4246;SDS011;2137;52.564;10.062;2022-09-09T01:49:44;1.40;;;0.40;;
4246;SDS011;2137;52.564;10.062;2022-09-09T01:50:09;1.50;;;0.43;;
4246;SDS011;2137;52.564;10.062;2022-09-09T01:50:27;0.65;;;0.55;;
4246;SDS011;2137;52.564;10.062;2022-09-09T01:50:45;1.10;;;0.45;;
4246;SDS011;2137;52.564;10.062;2022-09-09T01:51:02;0.73;;;0.40;;
4246;SDS011;2137;52.564;10.062;2022-09-09T01:51:19;0.40;;;0.40;;
4246;SDS011;2137;52.564;10.062;2022-09-09T01:51:37;0.82;;;0.40;;
4246;SDS011;2137;52.564;10.062;2022-09-09T01:51:58;1.30;;;0.40;;
4246;SDS011;2137;52.564;10.062;2022-09-09T01:52:22;1.40;;;0.38;;
4246;SDS011;2137;52.564;10.062;2022-09-09T01:52:39;1.38;;;0.80;;
4246;SDS011;2137;52.564;10.062;2022-09-09T01:52:59;0.95;;;0.40;;
4246;SDS011;2137;52.564;10.062;2022-09-09T01:53:21;0.90;;;0.40;;
4246;SDS011;2137;52.564;10.062;2022-09-09T01:53:38;0.57;;;0.43;;
4246;SDS011;2137;52.564;10.062;2022-09-09T01:53:55;0.85;;;0.47;;
4246;SDS011;2137;52.564;10.062;2022-09-09T01:54:12;0.88;;;0.43;;
4246;SDS011;2137;52.564;10.062;2022-09-09T01:54:29;1.30;;;0.50;;
4246;SDS011;2137;52.564;10.062;2022-09-09T01:54:50;0.95;;;0.47;;
4246;SDS011;2137;52.564;10.062;2022-09-09T01:55:11;1.13;;;0.70;;
4246;SDS011;2137;52.564;10.062;2022-09-09T01:55:29;1.32;;;0.40;;
4246;SDS011;2137;52.564;10.062;2022-09-09T01:55:49;3.13;;;0.68;;
4246;SDS011;2137;52.564;10.062;2022-09-09T01:56:17;4.00;;;0.90;;
4246;SDS011;2137;52.564;10.062;2022-09-09T01:56:40;1.20;;;0.20;;
4246;SDS011;2137;52.564;10.062;2022-09-09T01:57:02;1.75;;;0.50;;
4246;SDS011;2137;52.564;10.062;2022-09-09T01:57:24;0.85;;;0.28;;
4246;SDS011;2137;52.564;10.062;2022-09-09T01:57:42;0.40;;;0.20;;
4246;SDS011;2137;52.564;10.062;2022-09-09T01:58:05;2.40;;;0.40;;
4246;SDS011;2137;52.564;10.062;2022-09-09T01:58:32;0.30;;;0.25;;
4246;SDS011;2137;52.564;10.062;2022-09-09T01:59:00;1.15;;;0.50;;
4246;SDS011;2137;52.564;10.062;2022-09-09T01:59:22;1.70;;;0.30;;
4246;SDS011;2137;52.564;10.062;2022-09-09T01:59:53;0.70;;;0.43;;
4246;SDS011;2137;52.564;10.062;2022-09-09T02:00:14;0.70;;;0.35;;
4246;SDS011;2137;52.564;10.062;2022-09-09T02:00:31;0.65;;;0.50;;
4246;SDS011;2137;52.564;10.062;2022-09-09T02:00:52;0.40;;;0.32;;
4246;SDS011;2137;52.564;10.062;2022-09-09T02:01:14;0.60;;;0.20;;
4246;SDS011;2137;52.564;10.062;2022-09-09T02:01:36;0.70;;;0.30;;
4246;SDS011;2137;52.564;10.062;2022-09-09T02:01:58;1.75;;;0.30;;
4246;SDS011;2137;52.564;10.062;2022-09-09T02:02:18;1.52;;;0.30;;
4246;SDS011;2137;52.564;10.062;2022-09-09T02:02:53;0.35;;;0.20;;
4246;SDS011;2137;52.564;10.062;2022-09-09T02:03:21;0.65;;;0.30;;
4246;SDS011;2137;52.564;10.062;2022-09-09T02:03:49;1.15;;;0.20;;
4246;SDS011;2137;52.564;10.062;2022-09-09T02:04:18;1.20;;;0.20;;
4246;SDS011;2137;52.564;10.062;2022-09-09T02:04:38;2.47;;;0.40;;
4246;SDS011;2137;52.564;10.062;2022-09-09T02:05:02;1.35;;;0.30;;
4246;SDS011;2137;52.564;10.062;2022-09-09T02:05:28;0.60;;;0.30;;
4246;SDS011;2137;52.564;10.062;2022-09-09T02:05:49;0.64;;;0.20;;
4246;SDS011;2137;52.564;10.062;2022-09-09T02:06:14;0.60;;;0.40;;
4246;SDS011;2137;52.564;10.062;2022-09-09T02:06:37;1.50;;;0.50;;
4246;SDS011;2137;52.564;10.062;2022-09-09T02:07:10;0.72;;;0.40;;
4246;SDS011;2137;52.564;10.062;2022-09-09T02:07:33;0.70;;;0.28;;
4246;SDS011;2137;52.564;10.062;2022-09-09T02:07:55;0.55;;;0.28;;
4246;SDS011;2137;52.564;10.062;2022-09-09T02:08:23;1.65;;;0.50;;
4246;SDS011;2137;52.564;10.062;2022-09-09T02:08:49;1.05;;;0.40;;
4246;SDS011;2137;52.564;10.062;2022-09-09T02:09:07;0.93;;;0.30;;
4246;SDS011;2137;52.564;10.062;2022-09-09T02:09:24;0.30;;;0.20;;
4246;SDS011;2137;52.564;10.062;2022-09-09T02:09:44;0.35;;;0.20;;
4246;SDS011;2137;52.564;10.062;2022-09-09T02:10:07;0.50;;;0.40;;
4246;SDS011;2137;52.564;10.062;2022-09-09T02:10:28;0.60;;;0.40;;
4246;SDS011;2137;52.564;10.062;2022-09-09T02:10:58;1.25;;;0.40;;
4246;SDS011;2137;52.564;10.062;2022-09-09T02:11:42;1.80;;;0.60;;
4246;SDS011;2137;52.564;10.062;2022-09-09T02:12:08;1.65;;;0.90;;